Time;durP1;ratioP1;P1;durP2;ratioP2;P2;SDS_P1;SDS_P2;PMS_P1;PMS_P2;Temp;Humidity;BMP_temperature;BMP_pressure;BME280_temperature;BME280_humidity;BME280_pressure;Samples;Min_cycle;Max_cycle;Signal;HPM_P1;HPM_P2
2022/09/28 00:01:20;;;;;;;4.32;2.60;;;12.30;99.90;;;;;;5049659;28;20380;-66
2022/09/28 00:03:47;;;;;;;4.15;2.53;;;11.90;99.90;;;;;;5032000;28;20041;-67
2022/09/28 00:06:16;;;;;;;4.25;2.80;;;11.70;99.90;;;;;;5046111;28;20048;-67
2022/09/28 00:08:41;;;;;;;4.32;2.40;;;11.30;99.90;;;;;;5038247;28;20053;-67
2022/09/28 00:11:11;;;;;;;5.28;2.45;;;11.80;99.90;;;;;;5040455;28;20053;-67
2022/09/28 00:13:36;;;;;;;4.75;2.75;;;11.30;99.90;;;;;;5044287;28;20055;-67
2022/09/28 00:16:15;;;;;;;4.60;2.80;;;12.30;99.90;;;;;;5049990;28;20510;-68
2022/09/28 00:18:41;;;;;;;9.20;2.85;;;12.10;99.90;;;;;;5054424;28;20037;-68
2022/09/28 00:21:11;;;;;;;6.88;2.30;;;12.40;99.90;;;;;;5054801;28;20036;-67
2022/09/28 00:26:21;;;;;;;7.10;2.30;;;11.60;99.90;;;;;;5055661;28;20057;-68
2022/09/28 00:28:46;;;;;;;7.25;2.55;;;12.50;99.90;;;;;;5055508;28;20071;-67
2022/09/28 00:31:12;;;;;;;6.93;2.38;;;11.60;99.90;;;;;;5056176;28;20430;-68
2022/09/28 00:33:39;;;;;;;3.78;2.38;;;12.70;99.90;;;;;;5045600;28;20509;-68
2022/09/28 00:36:05;;;;;;;2.83;2.10;;;11.80;99.90;;;;;;5041314;28;20040;-68
2022/09/28 00:38:30;;;;;;;3.40;1.90;;;11.70;99.90;;;;;;5043452;28;20057;-67
2022/09/28 00:40:56;;;;;;;4.20;1.98;;;12.70;99.90;;;;;;5036500;28;20048;-68
2022/09/28 00:43:23;;;;;;;2.95;1.70;;;12.20;99.90;;;;;;5048643;28;20069;-68
2022/09/28 00:45:57;;;;;;;2.15;1.48;;;11.70;99.90;;;;;;5038474;28;20056;-68
2022/09/28 00:48:26;;;;;;;2.72;1.77;;;11.60;99.90;;;;;;5056245;28;20048;-68
2022/09/28 00:50:51;;;;;;;2.75;1.75;;;13.20;99.90;;;;;;5039674;28;20072;-68
2022/09/28 00:53:22;;;;;;;5.18;1.70;;;11.60;99.90;;;;;;5050680;28;20127;-68
2022/09/28 00:55:52;;;;;;;6.63;2.22;;;11.60;99.90;;;;;;5055117;28;20070;-68
2022/09/28 00:58:22;;;;;;;4.97;2.50;;;11.60;99.90;;;;;;5056596;28;20486;-68
2022/09/28 01:00:48;;;;;;;5.63;2.00;;;12.50;99.90;;;;;;5056094;28;20129;-68
2022/09/28 01:03:15;;;;;;;5.57;2.30;;;12.40;99.90;;;;;;5055493;28;20055;-68
2022/09/28 01:05:42;;;;;;;6.15;1.92;;;11.60;99.90;;;;;;5056071;28;20048;-68
2022/09/28 01:08:08;;;;;;;3.35;1.90;;;11.80;99.90;;;;;;5040338;28;20537;-68
2022/09/28 01:10:34;;;;;;;5.70;1.90;;;11.70;99.90;;;;;;5035714;28;20049;-68
2022/09/28 01:13:00;;;;;;;7.40;2.00;;;12.10;99.90;;;;;;5036132;28;20630;-68
2022/09/28 01:15:28;;;;;;;3.83;1.88;;;12.10;99.90;;;;;;5047770;28;20422;-68
2022/09/28 01:18:05;;;;;;;3.25;2.00;;;12.50;99.90;;;;;;5038870;28;20456;-67
2022/09/28 01:21:09;;;;;;;4.70;1.73;;;11.60;99.90;;;;;;5055147;28;20083;-68
2022/09/28 01:24:12;;;;;;;4.50;1.98;;;11.60;99.90;;;;;;5038412;28;20120;-67
2022/09/28 01:26:59;;;;;;;3.13;2.05;;;11.70;99.90;;;;;;5040992;28;20037;-68
2022/09/28 01:29:50;;;;;;;5.38;2.35;;;12.20;99.90;;;;;;5055168;28;20110;-67
2022/09/28 01:32:21;;;;;;;4.93;1.83;;;12.00;99.90;;;;;;5052791;28;20045;-68
2022/09/28 01:35:08;;;;;;;5.15;1.80;;;12.40;99.90;;;;;;5052708;28;20033;-68
2022/09/28 01:37:51;;;;;;;5.65;1.70;;;11.70;99.90;;;;;;5039604;28;20124;-68
2022/09/28 01:40:19;;;;;;;4.65;1.60;;;12.40;99.90;;;;;;5035128;28;20092;-68
2022/09/28 01:42:49;;;;;;;4.60;1.58;;;12.40;99.90;;;;;;5042237;28;20075;-68
2022/09/28 01:45:24;;;;;;;3.78;1.63;;;12.20;99.90;;;;;;5052586;28;20044;-68
2022/09/28 01:47:55;;;;;;;5.45;1.73;;;11.50;99.90;;;;;;5050963;28;20040;-68
2022/09/28 01:50:22;;;;;;;4.53;1.90;;;11.60;99.90;;;;;;5048535;28;20163;-68
2022/09/28 01:52:53;;;;;;;6.47;1.60;;;11.30;99.90;;;;;;5032482;28;20103;-67
2022/09/28 01:55:35;;;;;;;3.92;1.80;;;11.30;99.90;;;;;;5052922;28;20083;-68
2022/09/28 01:58:06;;;;;;;2.15;1.50;;;11.20;99.90;;;;;;5038772;28;20494;-68
2022/09/28 02:00:34;;;;;;;2.35;1.70;;;11.10;99.90;;;;;;5032325;28;20065;-68
2022/09/28 02:03:19;;;;;;;2.95;1.73;;;12.10;99.90;;;;;;5033527;28;20136;-68
2022/09/28 02:05:54;;;;;;;5.63;1.63;;;11.20;99.90;;;;;;5042622;28;20490;-68
2022/09/28 02:08:35;;;;;;;1.95;1.40;;;11.20;99.90;;;;;;5048166;28;20049;-68
2022/09/28 02:11:14;;;;;;;7.72;1.73;;;11.30;99.90;;;;;;5031766;28;20064;-68
2022/09/28 02:14:01;;;;;;;5.05;1.60;;;12.00;99.90;;;;;;5032427;28;20052;-68
2022/09/28 02:16:40;;;;;;;2.83;1.40;;;12.00;99.90;;;;;;5034297;28;20152;-68
2022/09/28 02:19:09;;;;;;;2.85;1.27;;;11.70;99.90;;;;;;5032336;28;20399;-68
2022/09/28 02:22:03;;;;;;;3.28;1.42;;;11.40;99.90;;;;;;5046894;28;20059;-68
2022/09/28 02:24:56;;;;;;;5.50;1.90;;;11.30;99.90;;;;;;5031826;28;20080;-68
2022/09/28 02:27:46;;;;;;;3.13;1.60;;;12.10;99.90;;;;;;5038871;28;20452;-68
2022/09/28 02:30:13;;;;;;;2.20;1.45;;;12.00;99.90;;;;;;5051759;28;20060;-68
2022/09/28 02:32:43;;;;;;;5.57;1.80;;;11.10;99.90;;;;;;5050687;28;20411;-67
2022/09/28 02:35:12;;;;;;;12.32;2.05;;;11.20;99.90;;;;;;5034845;28;20116;-68
2022/09/28 02:37:38;;;;;;;2.97;1.70;;;11.80;99.90;;;;;;5039940;28;20407;-68
2022/09/28 02:40:15;;;;;;;4.32;1.70;;;10.90;99.90;;;;;;5050696;28;20044;-68
2022/09/28 02:43:06;;;;;;;8.00;1.80;;;10.90;99.90;;;;;;5049722;28;20041;-67
2022/09/28 02:46:02;;;;;;;11.93;1.90;;;11.90;99.90;;;;;;5052573;28;20068;-68
2022/09/28 02:49:32;;;;;;;20.10;1.73;;;11.00;99.90;;;;;;5049947;28;20212;-67
2022/09/28 02:52:15;;;;;;;3.63;1.45;;;11.30;99.90;;;;;;4976255;28;20139;-67
2022/09/28 02:55:11;;;;;;;1.58;1.10;;;10.80;99.90;;;;;;4985143;28;20049;-68
2022/09/28 02:58:05;;;;;;;5.57;1.60;;;11.30;99.90;;;;;;5025707;28;20136;-68
2022/09/28 03:00:40;;;;;;;2.50;1.40;;;10.80;99.90;;;;;;5050925;28;20045;-68
2022/09/28 03:03:19;;;;;;;3.80;1.60;;;11.00;99.90;;;;;;5050304;28;20410;-68
2022/09/28 03:06:13;;;;;;;19.52;2.03;;;11.00;99.90;;;;;;5051042;28;20052;-68
2022/09/28 03:09:02;;;;;;;51.22;2.55;;;11.90;99.90;;;;;;5049787;28;20072;-68
2022/09/28 03:11:35;;;;;;;394.92;9.43;;;11.00;99.90;;;;;;5039437;28;20068;-67
2022/09/28 03:14:01;;;;;;;4.95;1.60;;;10.70;99.90;;;;;;5031004;28;20219;-68
2022/09/28 03:16:27;;;;;;;34.55;2.75;;;11.60;99.90;;;;;;5036947;28;20064;-68
2022/09/28 03:18:53;;;;;;;63.78;3.28;;;10.60;99.90;;;;;;5048800;28;20055;-68
2022/09/28 03:21:19;;;;;;;1.95;1.60;;;10.60;99.90;;;;;;5032239;28;20037;-67
2022/09/28 03:23:46;;;;;;;4.40;1.58;;;10.50;99.90;;;;;;5041297;28;20041;-68
2022/09/28 03:26:11;;;;;;;2.33;1.67;;;11.60;99.90;;;;;;5042424;28;20041;-68
2022/09/28 03:28:37;;;;;;;1.60;1.42;;;10.60;99.90;;;;;;5044280;28;20040;-67
2022/09/28 03:31:03;;;;;;;1.52;1.42;;;11.00;99.90;;;;;;5049205;28;20045;-68
2022/09/28 03:33:29;;;;;;;4.82;1.90;;;11.50;99.90;;;;;;5050956;28;20121;-68
2022/09/28 03:35:54;;;;;;;4.45;1.42;;;11.50;99.90;;;;;;5049933;28;20033;-68
2022/09/28 03:38:20;;;;;;;1.38;1.27;;;11.40;99.90;;;;;;5049967;28;20041;-67
2022/09/28 03:40:57;;;;;;;4.75;1.60;;;10.50;99.90;;;;;;5039792;28;20033;-68
2022/09/28 03:43:23;;;;;;;2.22;1.10;;;11.10;99.90;;;;;;5031820;28;20075;-68
2022/09/28 03:45:57;;;;;;;1.50;1.40;;;11.00;99.90;;;;;;5030544;28;20055;-68
2022/09/28 03:48:28;;;;;;;1.48;1.38;;;11.30;99.90;;;;;;5030632;28;20086;-68
2022/09/28 03:50:55;;;;;;;8.20;1.42;;;10.60;99.90;;;;;;5034413;28;20079;-68
2022/09/28 03:53:21;;;;;;;1.40;1.23;;;10.80;99.90;;;;;;5050833;28;20076;-69
2022/09/28 03:55:47;;;;;;;3.78;1.40;;;11.50;99.90;;;;;;5037566;28;20111;-67
2022/09/28 03:58:13;;;;;;;1.83;1.40;;;11.60;99.90;;;;;;5030303;28;20042;-68
2022/09/28 04:00:38;;;;;;;3.53;1.27;;;10.40;99.90;;;;;;5033035;28;20037;-68
2022/09/28 04:03:04;;;;;;;1.10;1.10;;;10.60;99.90;;;;;;5035784;28;20052;-68
2022/09/28 04:05:30;;;;;;;4.22;1.25;;;10.50;99.90;;;;;;5034355;28;20056;-68
2022/09/28 04:07:56;;;;;;;1.95;1.23;;;10.70;99.90;;;;;;5050015;28;20052;-67
2022/09/28 04:10:23;;;;;;;3.13;1.30;;;10.40;99.90;;;;;;5049565;28;20089;-67
2022/09/28 04:12:49;;;;;;;2.35;1.40;;;11.50;99.90;;;;;;5048380;28;20079;-68
2022/09/28 04:15:15;;;;;;;6.05;1.58;;;11.30;99.90;;;;;;5049774;28;20060;-68
2022/09/28 04:17:41;;;;;;;48.42;4.07;;;11.20;99.90;;;;;;5051251;28;20494;-68
2022/09/28 04:20:07;;;;;;;1.45;1.25;;;11.50;99.90;;;;;;5043130;28;20039;-68
2022/09/28 04:22:36;;;;;;;1.15;1.10;;;10.50;99.90;;;;;;5048820;28;20068;-68
2022/09/28 04:25:02;;;;;;;6.45;1.30;;;10.40;99.90;;;;;;5049524;28;20463;-67
2022/09/28 04:30:12;;;;;;;8.90;2.20;;;10.80;99.90;;;;;;5049901;28;20506;-68
2022/09/28 04:32:37;;;;;;;1.60;1.27;;;11.20;99.90;;;;;;5048457;28;20048;-68
2022/09/28 04:35:03;;;;;;;5.28;1.25;;;10.70;99.90;;;;;;5050487;28;20086;-68
2022/09/28 04:37:30;;;;;;;2.22;1.17;;;10.70;99.90;;;;;;5049726;28;20064;-68
2022/09/28 04:39:55;;;;;;;4.13;1.38;;;10.80;99.90;;;;;;5049599;28;20044;-68
2022/09/28 04:42:21;;;;;;;3.55;1.40;;;10.80;99.90;;;;;;5041364;28;20483;-68
2022/09/28 04:44:46;;;;;;;1.42;1.10;;;11.50;99.90;;;;;;5030936;28;20034;-68
2022/09/28 04:47:12;;;;;;;2.38;1.13;;;10.70;99.90;;;;;;5031415;28;20076;-68
2022/09/28 04:49:38;;;;;;;4.45;1.08;;;10.70;99.90;;;;;;5036198;28;20535;-68
2022/09/28 04:52:04;;;;;;;1.35;1.20;;;11.60;99.90;;;;;;5050041;28;20508;-68
2022/09/28 04:54:30;;;;;;;2.50;1.25;;;11.40;99.90;;;;;;5049019;28;20041;-68
2022/09/28 04:56:56;;;;;;;5.93;1.00;;;10.90;99.90;;;;;;5046174;28;20048;-68
2022/09/28 04:59:22;;;;;;;1.58;1.20;;;11.60;99.90;;;;;;5029562;28;20045;-68
2022/09/28 05:01:48;;;;;;;1.73;1.13;;;11.10;99.90;;;;;;5029486;28;20038;-68
2022/09/28 05:04:14;;;;;;;2.53;1.40;;;11.80;99.90;;;;;;5043612;28;20045;-68
2022/09/28 05:06:39;;;;;;;4.55;1.30;;;11.60;99.90;;;;;;5053252;28;20040;-68
2022/09/28 05:09:06;;;;;;;2.33;1.33;;;11.20;99.90;;;;;;5053508;28;20077;-68
2022/09/28 05:11:31;;;;;;;3.83;1.23;;;10.90;99.90;;;;;;5052553;28;20053;-68
2022/09/28 05:13:57;;;;;;;4.93;1.42;;;12.10;99.90;;;;;;5047279;28;20083;-69
2022/09/28 05:16:24;;;;;;;10.05;1.50;;;11.60;99.90;;;;;;5054008;28;20041;-68
2022/09/28 05:18:54;;;;;;;1.25;1.20;;;11.10;99.90;;;;;;5047952;28;20646;-68
2022/09/28 05:21:19;;;;;;;3.03;1.10;;;11.40;99.90;;;;;;5051368;28;20049;-68
2022/09/28 05:23:46;;;;;;;1.73;1.20;;;11.00;99.90;;;;;;5051258;28;20044;-68
2022/09/28 05:26:12;;;;;;;2.22;1.10;;;11.60;99.90;;;;;;5048814;28;20036;-68
2022/09/28 05:28:38;;;;;;;4.07;1.20;;;11.10;99.90;;;;;;5035174;28;20419;-68
2022/09/28 05:31:04;;;;;;;1.80;1.30;;;12.00;99.90;;;;;;5039361;28;20060;-68
2022/09/28 05:33:31;;;;;;;3.13;1.20;;;11.90;99.90;;;;;;5045289;28;20111;-68
2022/09/28 05:35:57;;;;;;;1.92;1.40;;;11.20;99.90;;;;;;5046467;28;20037;-67
2022/09/28 05:38:23;;;;;;;1.30;1.20;;;11.30;99.90;;;;;;5043987;28;20044;-68
2022/09/28 05:40:48;;;;;;;4.72;1.33;;;12.20;99.90;;;;;;5044005;28;20047;-68
2022/09/28 05:43:14;;;;;;;2.83;1.30;;;12.10;99.90;;;;;;5039487;28;20091;-68
2022/09/28 05:45:40;;;;;;;2.53;1.00;;;11.00;99.90;;;;;;5041522;28;20042;-68
2022/09/28 05:48:05;;;;;;;438.80;9.00;;;12.10;99.90;;;;;;5049148;28;20044;-68
2022/09/28 05:50:31;;;;;;;416.75;7.85;;;11.60;99.90;;;;;;5039691;28;20036;-68
2022/09/28 05:53:03;;;;;;;190.00;5.47;;;12.00;99.90;;;;;;5045610;28;20056;-68
2022/09/28 05:55:29;;;;;;;138.68;2.90;;;11.60;99.90;;;;;;5043597;28;20041;-67
2022/09/28 05:57:59;;;;;;;224.15;5.15;;;11.10;99.90;;;;;;5035385;28;20380;-68
2022/09/28 06:00:29;;;;;;;13.98;1.10;;;11.50;99.90;;;;;;5037306;28;20033;-68
2022/09/28 06:02:59;;;;;;;237.77;4.15;;;11.00;99.90;;;;;;5039307;28;20484;-68
2022/09/28 06:05:26;;;;;;;82.75;3.22;;;10.90;99.90;;;;;;5042477;28;20411;-68
2022/09/28 06:07:55;;;;;;;1.85;1.10;;;11.80;99.90;;;;;;5050627;28;20048;-68
2022/09/28 06:10:22;;;;;;;5.28;1.33;;;11.20;99.90;;;;;;5046468;28;20057;-68
2022/09/28 06:12:54;;;;;;;1.83;1.20;;;10.90;99.90;;;;;;5043383;28;20803;-72
2022/09/28 06:15:20;;;;;;;4.25;1.38;;;12.10;99.90;;;;;;5044389;28;20075;-70
2022/09/28 06:17:46;;;;;;;2.85;1.27;;;12.10;99.90;;;;;;5043613;28;20041;-69
2022/09/28 06:20:11;;;;;;;6.68;1.40;;;12.00;99.90;;;;;;5032145;28;20047;-70
2022/09/28 06:22:37;;;;;;;3.67;1.50;;;11.10;99.90;;;;;;5046627;28;20099;-68
2022/09/28 06:25:04;;;;;;;3.25;1.25;;;12.30;99.90;;;;;;5058201;28;20029;-66
2022/09/28 06:27:29;;;;;;;3.85;1.38;;;12.30;99.90;;;;;;5042385;28;20048;-65
2022/09/28 06:29:55;;;;;;;4.95;1.52;;;12.40;99.90;;;;;;5046876;28;20399;-65
2022/09/28 06:32:20;;;;;;;5.63;1.55;;;12.00;99.90;;;;;;5045536;28;20160;-65
2022/09/28 06:34:46;;;;;;;3.30;1.60;;;11.80;99.90;;;;;;5040725;28;20041;-65
2022/09/28 06:37:11;;;;;;;4.40;1.60;;;12.60;99.90;;;;;;5044988;28;20115;-66
2022/09/28 06:39:37;;;;;;;6.75;1.52;;;13.00;99.90;;;;;;5038475;28;20459;-66
2022/09/28 06:42:03;;;;;;;2.17;1.13;;;12.30;99.90;;;;;;5040095;28;20029;-66
2022/09/28 06:44:29;;;;;;;2.88;1.45;;;13.20;99.90;;;;;;5044915;28;20044;-67
2022/09/28 06:46:57;;;;;;;10.13;1.80;;;13.30;99.90;;;;;;5046872;28;20114;-70
2022/09/28 06:49:25;;;;;;;6.28;1.90;;;12.90;99.90;;;;;;5044311;28;20033;-69
2022/09/28 06:51:51;;;;;;;7.13;1.88;;;13.80;99.90;;;;;;5045833;28;20045;-73
2022/09/28 06:54:16;;;;;;;2.70;1.00;;;14.00;99.90;;;;;;5047795;28;20037;-69
2022/09/28 06:56:42;;;;;;;7.20;1.20;;;13.00;99.90;;;;;;5031100;28;20392;-69
2022/09/28 06:59:08;;;;;;;5.20;1.27;;;13.30;99.90;;;;;;5045040;28;20402;-71
2022/09/28 07:01:33;;;;;;;4.32;0.90;;;14.50;99.90;;;;;;5051200;28;20666;-72
2022/09/28 07:04:00;;;;;;;10.70;1.52;;;14.50;99.90;;;;;;5051077;28;20387;-71
2022/09/28 07:06:27;;;;;;;2.75;1.23;;;13.20;99.90;;;;;;5051083;28;20045;-71
2022/09/28 07:08:53;;;;;;;1.92;0.90;;;14.70;99.90;;;;;;5046151;28;20123;-71
2022/09/28 07:11:20;;;;;;;4.60;1.10;;;14.40;99.90;;;;;;5050686;28;20053;-72
2022/09/28 07:13:45;;;;;;;3.50;0.88;;;14.80;99.90;;;;;;5051124;28;20509;-71
2022/09/28 07:16:11;;;;;;;6.80;1.20;;;14.90;99.90;;;;;;5049891;28;20037;-72
2022/09/28 07:18:37;;;;;;;3.72;1.10;;;15.00;99.90;;;;;;5039537;28;20049;-71
2022/09/28 07:21:06;;;;;;;9.10;1.30;;;13.70;99.90;;;;;;5050455;28;20048;-71
2022/09/28 07:23:32;;;;;;;5.38;1.17;;;15.00;99.90;;;;;;5032449;28;20049;-71
2022/09/28 07:26:01;;;;;;;5.40;1.30;;;13.80;99.90;;;;;;5042542;28;20128;-72
2022/09/28 07:28:27;;;;;;;8.23;1.10;;;14.00;99.90;;;;;;5040846;28;20091;-70
2022/09/28 07:30:56;;;;;;;5.57;1.17;;;15.00;99.90;;;;;;5050281;28;20079;-71
2022/09/28 07:33:24;;;;;;;4.38;1.05;;;15.40;99.90;;;;;;5050858;28;20513;-72
2022/09/28 07:35:54;;;;;;;2.28;0.80;;;15.00;99.90;;;;;;5015514;28;20049;-71
2022/09/28 07:38:20;;;;;;;4.47;1.00;;;14.30;99.90;;;;;;5031491;28;20095;-71
2022/09/28 07:43:31;;;;;;;5.18;0.90;;;15.40;99.90;;;;;;5051855;28;20052;-71
2022/09/28 07:45:57;;;;;;;2.83;0.70;;;14.30;99.90;;;;;;5032051;28;20052;-71
2022/09/28 07:48:23;;;;;;;2.03;0.90;;;14.40;99.90;;;;;;5031675;28;20491;-72
2022/09/28 07:50:55;;;;;;;5.95;1.20;;;15.70;99.90;;;;;;5045682;28;20082;-71
2022/09/28 07:53:23;;;;;;;4.70;1.48;;;15.70;99.90;;;;;;5042551;28;20037;-70
2022/09/28 07:55:54;;;;;;;3.22;0.70;;;17.70;99.90;;;;;;5049183;28;20103;-71
2022/09/28 07:58:19;;;;;;;3.58;0.80;;;14.70;99.90;;;;;;5041112;28;20109;-72
2022/09/28 08:00:46;;;;;;;5.43;1.10;;;16.10;99.90;;;;;;5039696;28;20164;-71
2022/09/28 08:03:16;;;;;;;4.20;0.68;;;15.30;99.90;;;;;;5030456;28;20108;-71
2022/09/28 08:05:42;;;;;;;3.78;0.80;;;16.50;99.90;;;;;;5030184;28;20507;-71
2022/09/28 08:08:08;;;;;;;1.30;0.80;;;17.30;99.90;;;;;;5033953;28;20044;-70
2022/09/28 08:10:36;;;;;;;5.00;0.77;;;17.20;99.90;;;;;;5036747;28;20049;-71
2022/09/28 08:13:02;;;;;;;5.35;0.90;;;16.70;99.90;;;;;;5040110;28;20033;-70
2022/09/28 08:15:28;;;;;;;1.75;0.70;;;17.90;99.90;;;;;;5048252;28;20037;-71
2022/09/28 08:17:54;;;;;;;0.40;0.40;;;17.10;99.90;;;;;;5031032;28;20164;-70
2022/09/28 08:23:10;;;;;;;4.90;0.63;;;17.20;99.90;;;;;;5046244;28;20041;-70
2022/09/28 08:25:37;;;;;;;2.17;0.70;;;17.50;99.90;;;;;;5039092;28;20449;-70
2022/09/28 08:28:05;;;;;;;1.63;0.63;;;17.60;99.90;;;;;;5043486;28;20064;-70
2022/09/28 08:30:31;;;;;;;5.82;0.80;;;17.80;99.90;;;;;;5049493;28;20037;-70
2022/09/28 08:32:56;;;;;;;1.75;0.50;;;18.00;99.90;;;;;;5048098;28;20521;-70
2022/09/28 08:35:25;;;;;;;0.40;0.40;;;18.60;99.90;;;;;;5041582;28;20051;-70
2022/09/28 08:37:52;;;;;;;3.50;0.70;;;18.30;99.90;;;;;;5044114;28;20120;-70
2022/09/28 08:40:23;;;;;;;3.35;0.70;;;19.00;99.90;;;;;;5034983;28;20045;-70
2022/09/28 08:42:53;;;;;;;2.33;0.57;;;18.90;99.90;;;;;;5041278;28;20041;-70
2022/09/28 08:45:27;;;;;;;6.00;0.73;;;19.70;99.90;;;;;;5033604;28;20450;-70
2022/09/28 08:50:58;;;;;;;0.57;0.40;;;19.50;99.90;;;;;;5042193;28;20087;-70
2022/09/28 08:53:39;;;;;;;4.00;0.67;;;19.30;99.90;;;;;;5049698;28;20091;-69
2022/09/28 08:56:11;;;;;;;2.80;0.70;;;19.90;99.90;;;;;;5040096;28;20291;-69
2022/09/28 08:58:41;;;;;;;4.18;0.70;;;19.20;99.90;;;;;;5037350;28;20042;-69
2022/09/28 09:01:15;;;;;;;3.03;0.70;;;19.90;99.90;;;;;;5040895;28;20406;-69
2022/09/28 09:03:44;;;;;;;2.60;0.60;;;19.80;99.90;;;;;;5045840;28;20118;-69
2022/09/28 09:06:12;;;;;;;2.55;0.65;;;19.30;99.90;;;;;;5033576;28;20063;-69
2022/09/28 09:08:56;;;;;;;4.43;1.05;;;19.50;99.90;;;;;;5046978;28;20123;-69
2022/09/28 09:11:43;;;;;;;2.42;1.15;;;19.10;99.90;;;;;;5054256;28;20063;-69
2022/09/28 09:14:14;;;;;;;1.98;0.77;;;19.30;99.90;;;;;;5054586;28;20033;-69
2022/09/28 09:17:00;;;;;;;2.05;0.63;;;18.70;99.90;;;;;;5054223;28;20194;-68
2022/09/28 09:19:53;;;;;;;1.88;0.57;;;18.00;99.90;;;;;;5019003;28;20041;-69
2022/09/28 09:22:37;;;;;;;2.65;0.63;;;17.40;99.90;;;;;;5037879;28;20050;-69
2022/09/28 09:25:24;;;;;;;0.55;0.40;;;17.60;99.90;;;;;;5054246;28;20052;-68
2022/09/28 09:28:26;;;;;;;3.83;0.90;;;16.80;99.90;;;;;;5036381;28;20095;-69
2022/09/28 09:31:17;;;;;;;0.60;0.30;;;17.00;99.90;;;;;;5053996;28;20040;-69
2022/09/28 09:33:59;;;;;;;1.02;0.50;;;16.50;99.90;;;;;;5050288;28;20107;-68
2022/09/28 09:36:39;;;;;;;1.65;0.70;;;16.60;99.90;;;;;;5051576;28;20049;-69
2022/09/28 09:39:36;;;;;;;2.10;0.75;;;17.10;99.90;;;;;;5050410;28;20372;-68
2022/09/28 09:42:15;;;;;;;3.10;0.45;;;17.00;99.90;;;;;;5050614;28;20490;-68
2022/09/28 09:44:44;;;;;;;2.25;0.80;;;17.00;99.90;;;;;;5032580;28;20033;-68
2022/09/28 09:47:24;;;;;;;4.80;0.88;;;17.60;99.90;;;;;;5042473;28;20053;-68
2022/09/28 09:50:09;;;;;;;3.00;0.52;;;17.70;99.90;;;;;;5052275;28;20049;-68
2022/09/28 09:52:48;;;;;;;4.03;0.82;;;17.60;99.90;;;;;;5043551;28;20043;-68
2022/09/28 09:55:19;;;;;;;2.35;0.73;;;17.40;99.90;;;;;;5050683;28;20068;-68
2022/09/28 09:57:59;;;;;;;4.60;0.98;;;17.00;99.90;;;;;;5038010;28;20045;-68
2022/09/28 10:00:25;;;;;;;3.80;0.68;;;16.90;99.90;;;;;;5051768;28;20044;-68
2022/09/28 10:02:52;;;;;;;3.63;0.80;;;16.80;99.90;;;;;;5046539;28;20041;-68
2022/09/28 10:05:24;;;;;;;5.07;0.80;;;16.70;1.00;;;;;;5032631;28;20064;-68
2022/09/28 10:08:07;;;;;;;4.00;0.90;;;16.60;1.00;;;;;;5044455;28;20081;-68
2022/09/28 10:10:35;;;;;;;6.47;0.80;;;16.60;1.00;;;;;;5032320;28;20596;-68
2022/09/28 10:13:02;;;;;;;7.63;1.13;;;17.00;95.30;;;;;;5036787;28;20530;-68
2022/09/28 10:15:30;;;;;;;5.90;0.95;;;16.90;1.00;;;;;;5031271;28;20041;-68
2022/09/28 10:17:59;;;;;;;5.10;0.57;;;16.60;1.00;;;;;;5030000;28;20478;-68
2022/09/28 10:20:26;;;;;;;3.22;0.60;;;17.00;1.00;;;;;;5032147;28;20577;-68
2022/09/28 10:22:56;;;;;;;3.33;0.63;;;16.90;1.00;;;;;;5043118;28;20049;-68
2022/09/28 10:25:23;;;;;;;1.58;0.80;;;17.10;1.00;;;;;;5029812;28;20046;-68
2022/09/28 10:27:51;;;;;;;3.42;0.90;;;16.60;99.90;;;;;;5040756;28;20048;-68
2022/09/28 10:30:22;;;;;;;3.72;0.80;;;16.50;99.90;;;;;;5018952;28;20046;-68
2022/09/28 10:32:57;;;;;;;4.00;0.73;;;16.40;35.70;;;;;;5031236;28;20087;-68
2022/09/28 10:35:28;;;;;;;5.15;0.65;;;16.70;99.90;;;;;;5047022;28;20388;-67
2022/09/28 10:38:06;;;;;;;3.38;0.80;;;16.30;99.90;;;;;;5050159;28;20045;-68
2022/09/28 10:40:53;;;;;;;4.72;0.95;;;16.60;1.00;;;;;;5049458;28;20086;-68
2022/09/28 10:43:32;;;;;;;1.38;0.60;;;16.30;1.00;;;;;;5037319;28;20403;-68
2022/09/28 10:46:13;;;;;;;2.15;0.68;;;16.80;1.00;;;;;;5029297;28;20049;-68
2022/09/28 10:48:44;;;;;;;1.23;0.50;;;17.50;1.00;;;;;;5029533;28;20428;-68
2022/09/28 10:51:10;;;;;;;1.80;0.68;;;17.40;1.00;;;;;;5030765;28;20064;-68
2022/09/28 10:53:36;;;;;;;2.88;0.80;;;17.40;99.90;;;;;;5041870;28;20037;-68
2022/09/28 10:56:03;;;;;;;3.17;0.60;;;17.10;1.00;;;;;;5035032;28;20116;-68
2022/09/28 10:58:40;;;;;;;5.43;0.90;;;16.90;1.00;;;;;;5046376;28;20039;-67
2022/09/28 11:01:10;;;;;;;3.42;1.23;;;17.30;1.00;;;;;;5042865;28;20116;-69
2022/09/28 11:03:50;;;;;;;4.28;0.80;;;17.00;1.00;;;;;;5040384;28;20042;-72
2022/09/28 11:06:27;;;;;;;5.25;0.80;;;17.50;10.50;;;;;;5041893;28;20041;-71
2022/09/28 11:08:55;;;;;;;4.82;0.93;;;17.40;99.90;;;;;;5030940;28;20049;-70
2022/09/28 11:11:22;;;;;;;4.53;1.10;;;17.30;99.90;;;;;;5039761;28;20053;-71
2022/09/28 11:13:51;;;;;;;6.68;1.00;;;16.80;99.90;;;;;;5021722;28;20037;-71
2022/09/28 11:16:19;;;;;;;10.30;1.27;;;17.00;99.90;;;;;;5045607;28;20033;-71
2022/09/28 11:18:45;;;;;;;5.93;1.10;;;17.10;99.90;;;;;;5031525;28;20072;-71
2022/09/28 11:21:17;;;;;;;5.68;1.17;;;16.50;99.90;;;;;;5033827;28;20158;-72
2022/09/28 11:23:56;;;;;;;12.93;1.10;;;17.00;99.90;;;;;;5012702;28;20045;-72
2022/09/28 11:26:21;;;;;;;4.13;0.82;;;16.90;99.90;;;;;;5028614;28;20095;-72
2022/09/28 11:28:52;;;;;;;6.28;1.13;;;16.90;99.90;;;;;;5043265;28;20041;-72
2022/09/28 11:31:25;;;;;;;11.20;1.30;;;16.30;99.90;;;;;;5030108;28;20125;-71
2022/09/28 11:34:05;;;;;;;5.53;1.20;;;16.90;99.90;;;;;;5030694;28;20080;-71
2022/09/28 11:36:49;;;;;;;15.00;1.05;;;16.20;99.90;;;;;;5038169;28;20397;-71
2022/09/28 11:39:27;;;;;;;7.97;1.38;;;16.80;99.90;;;;;;5050300;28;20132;-72
2022/09/28 11:42:20;;;;;;;5.45;1.10;;;16.50;99.90;;;;;;5050466;28;20033;-72
2022/09/28 11:44:47;;;;;;;6.78;1.27;;;15.90;99.90;;;;;;5050699;28;20483;-72
2022/09/28 11:47:37;;;;;;;11.48;1.48;;;16.00;99.90;;;;;;5037107;28;20044;-72
2022/09/28 11:50:18;;;;;;;6.07;0.90;;;16.70;99.90;;;;;;5033257;28;20166;-72
2022/09/28 11:53:00;;;;;;;5.65;1.15;;;16.30;99.90;;;;;;5047978;28;20036;-72
2022/09/28 11:55:34;;;;;;;5.30;1.20;;;15.90;99.90;;;;;;5043662;28;20095;-72
2022/09/28 11:58:39;;;;;;;2.83;0.90;;;16.60;99.90;;;;;;5050251;28;20136;-73
2022/09/28 12:01:15;;;;;;;4.95;0.90;;;15.90;99.90;;;;;;5049399;28;20033;-72
2022/09/28 12:03:49;;;;;;;2.95;0.75;;;16.60;99.90;;;;;;5030172;28;20068;-72
2022/09/28 12:06:23;;;;;;;0.82;0.63;;;16.50;99.90;;;;;;5035512;28;20118;-72
2022/09/28 12:08:54;;;;;;;1.67;0.73;;;16.00;99.90;;;;;;5050045;28;20245;-72
2022/09/28 12:11:26;;;;;;;1.58;0.68;;;17.60;99.90;;;;;;5046141;28;20065;-72
2022/09/28 12:13:54;;;;;;;2.25;0.90;;;16.10;99.90;;;;;;5049958;28;20498;-72
2022/09/28 12:16:26;;;;;;;1.20;0.60;;;16.70;99.90;;;;;;5049742;28;20071;-72
2022/09/28 12:18:55;;;;;;;3.67;0.80;;;17.50;99.90;;;;;;5049934;28;20495;-72
2022/09/28 12:21:24;;;;;;;2.88;0.60;;;17.00;99.90;;;;;;5040982;28;20033;-72
2022/09/28 12:23:54;;;;;;;1.20;0.60;;;16.30;99.90;;;;;;5042609;28;20080;-72
2022/09/28 12:26:35;;;;;;;1.55;0.75;;;16.70;99.90;;;;;;5047123;28;20057;-72
2022/09/28 12:29:09;;;;;;;2.28;0.60;;;16.50;99.90;;;;;;5049514;28;20503;-72
2022/09/28 12:31:51;;;;;;;1.02;0.68;;;16.90;99.90;;;;;;5047986;28;20037;-72
2022/09/28 12:34:17;;;;;;;2.30;0.70;;;17.20;99.90;;;;;;5038905;28;20041;-72
2022/09/28 12:37:17;;;;;;;2.55;0.60;;;17.30;99.90;;;;;;5022972;28;20052;-72
2022/09/28 12:40:22;;;;;;;2.75;0.73;;;17.10;99.90;;;;;;5028357;28;20073;-72
2022/09/28 12:43:16;;;;;;;1.48;0.70;;;17.20;99.90;;;;;;4993697;28;20044;-71
2022/09/28 12:45:56;;;;;;;0.65;0.60;;;17.60;99.90;;;;;;5030843;28;20048;-73
2022/09/28 12:48:51;;;;;;;1.38;0.65;;;17.10;99.90;;;;;;5042015;28;20502;-72
2022/09/28 12:51:50;;;;;;;6.70;0.98;;;17.50;99.90;;;;;;5040456;28;20048;-73
2022/09/28 12:54:25;;;;;;;2.90;0.80;;;17.10;99.90;;;;;;5026540;28;20049;-73
2022/09/28 12:57:18;;;;;;;3.25;0.60;;;17.20;99.90;;;;;;5027786;28;20188;-73
2022/09/28 13:00:04;;;;;;;2.47;0.55;;;17.10;99.90;;;;;;5047108;28;20037;-72
2022/09/28 13:02:48;;;;;;;1.92;0.57;;;17.10;99.90;;;;;;5038253;28;20057;-73
2022/09/28 13:05:36;;;;;;;2.17;0.77;;;17.30;99.90;;;;;;5038584;28;20053;-73
2022/09/28 13:08:12;;;;;;;2.70;0.95;;;17.40;99.90;;;;;;5029556;28;20124;-73
2022/09/28 13:10:46;;;;;;;3.65;0.90;;;17.40;99.90;;;;;;5034232;28;20057;-73
2022/09/28 13:13:41;;;;;;;0.57;0.50;;;17.50;99.90;;;;;;5040539;28;20048;-73
2022/09/28 13:16:27;;;;;;;2.03;0.68;;;17.20;99.90;;;;;;5049265;28;20037;-72
2022/09/28 13:19:10;;;;;;;2.33;0.60;;;17.30;99.90;;;;;;5047176;28;20033;-72
2022/09/28 13:21:47;;;;;;;1.33;0.70;;;17.20;99.90;;;;;;5019666;28;20492;-72
2022/09/28 13:24:25;;;;;;;0.63;0.50;;;17.30;99.90;;;;;;5049172;28;20108;-73
2022/09/28 13:26:53;;;;;;;1.13;0.60;;;17.10;99.90;;;;;;5051107;28;20040;-73